Time;durP1;ratioP1;P1;durP2;ratioP2;P2;SDS_P1;SDS_P2;PMS_P1;PMS_P2;Temp;Humidity;BMP_temperature;BMP_pressure;BME280_temperature;BME280_humidity;BME280_pressure;Samples;Min_cycle;Max_cycle;Signal;HPM_P1;HPM_P2
2021/11/24 00:01:45;;;;;;;4.57;0.82;;;18.90;47.00;;;;;;5072550;28;20040;-52
2021/11/24 00:04:12;;;;;;;1.45;0.55;;;18.90;47.10;;;;;;5073854;28;20048;-47
2021/11/24 00:06:39;;;;;;;1.38;0.77;;;18.80;47.00;;;;;;5074553;28;20492;-50
2021/11/24 00:09:06;;;;;;;2.85;0.70;;;18.90;47.00;;;;;;5078976;28;20036;-53
2021/11/24 00:11:33;;;;;;;0.90;0.40;;;18.80;47.00;;;;;;5067732;28;20051;-50
2021/11/24 00:14:00;;;;;;;2.10;1.08;;;18.80;47.00;;;;;;5069308;28;20036;-53
2021/11/24 00:16:27;;;;;;;2.78;0.68;;;18.80;47.30;;;;;;5077442;28;20039;-51
2021/11/24 00:18:56;;;;;;;1.98;0.50;;;18.80;47.40;;;;;;5080540;28;20037;-52
2021/11/24 00:21:23;;;;;;;4.35;0.52;;;18.70;47.60;;;;;;5068943;28;20412;-51
2021/11/24 00:23:50;;;;;;;1.00;0.43;;;18.70;47.60;;;;;;5067131;28;20040;-53
2021/11/24 00:26:17;;;;;;;2.20;0.43;;;18.70;47.60;;;;;;5070035;28;20058;-54
2021/11/24 00:28:44;;;;;;;14.07;0.70;;;18.70;47.70;;;;;;5070876;28;20479;-52
2021/11/24 00:31:11;;;;;;;13.98;0.43;;;18.60;47.90;;;;;;5062659;28;20051;-47
2021/11/24 00:33:38;;;;;;;1.20;0.40;;;18.60;47.90;;;;;;5069700;28;20836;-54
2021/11/24 00:36:06;;;;;;;1.33;0.47;;;18.60;47.90;;;;;;5047445;28;20029;-49
2021/11/24 00:38:33;;;;;;;3.20;0.40;;;18.60;47.90;;;;;;5070189;28;20040;-52
2021/11/24 00:41:00;;;;;;;6.70;0.40;;;18.60;47.90;;;;;;5064842;28;20063;-52
2021/11/24 00:43:27;;;;;;;1.52;0.38;;;18.60;47.90;;;;;;5063931;28;20559;-53
2021/11/24 00:45:55;;;;;;;1.38;1.02;;;18.60;47.90;;;;;;5073464;28;20504;-51
2021/11/24 00:48:22;;;;;;;1.58;0.50;;;18.60;48.00;;;;;;5070484;28;20488;-53
2021/11/24 00:50:49;;;;;;;1.13;0.45;;;18.60;48.00;;;;;;5069413;28;20039;-50
2021/11/24 00:53:18;;;;;;;2.20;0.20;;;18.60;48.10;;;;;;5073179;28;20055;-48
2021/11/24 00:55:45;;;;;;;1.02;0.35;;;18.60;48.10;;;;;;5073713;28;20036;-51
2021/11/24 00:58:12;;;;;;;1.33;0.17;;;18.60;48.20;;;;;;5073349;28;20050;-50
2021/11/24 01:00:39;;;;;;;1.35;0.38;;;18.50;48.10;;;;;;5078720;28;20044;-48
2021/11/24 01:03:06;;;;;;;3.25;0.50;;;18.60;48.20;;;;;;5073263;28;20535;-49
2021/11/24 01:05:33;;;;;;;2.45;0.50;;;18.60;48.20;;;;;;5058833;28;20040;-51
2021/11/24 01:08:00;;;;;;;1.42;0.30;;;18.60;48.40;;;;;;5072389;28;20044;-49
2021/11/24 01:10:29;;;;;;;0.70;0.57;;;18.60;48.40;;;;;;5069736;28;20060;-53
2021/11/24 01:12:56;;;;;;;0.88;0.20;;;18.60;48.40;;;;;;5072131;28;20040;-55
2021/11/24 01:15:23;;;;;;;1.27;0.20;;;18.50;48.30;;;;;;5078750;28;20044;-49
2021/11/24 01:17:52;;;;;;;1.95;0.70;;;18.50;48.40;;;;;;5070545;28;20412;-54
2021/11/24 01:20:19;;;;;;;1.42;0.90;;;18.50;48.40;;;;;;5069306;28;20792;-55
2021/11/24 01:22:47;;;;;;;3.50;1.58;;;18.50;48.60;;;;;;5075309;28;20579;-55
2021/11/24 01:25:14;;;;;;;6.03;0.70;;;18.50;48.60;;;;;;5075632;28;20049;-52
2021/11/24 01:27:42;;;;;;;1.70;0.20;;;18.60;48.70;;;;;;5078911;28;20048;-53
2021/11/24 01:30:12;;;;;;;0.68;0.43;;;18.50;48.80;;;;;;5075316;28;20040;-53
2021/11/24 01:32:39;;;;;;;1.13;0.50;;;18.50;48.80;;;;;;5071193;28;20040;-50
2021/11/24 01:35:08;;;;;;;1.95;0.30;;;18.50;48.80;;;;;;5077424;28;20602;-50
2021/11/24 01:37:35;;;;;;;2.50;0.30;;;18.50;48.80;;;;;;5071838;28;20063;-49
2021/11/24 01:40:04;;;;;;;1.50;0.55;;;18.50;48.80;;;;;;5079381;28;20047;-52
2021/11/24 01:42:33;;;;;;;0.70;0.40;;;18.50;48.90;;;;;;5069431;28;20527;-52
2021/11/24 01:45:02;;;;;;;0.50;0.30;;;18.50;48.90;;;;;;5076583;28;20044;-54
2021/11/24 01:47:30;;;;;;;1.58;0.30;;;18.50;49.00;;;;;;5072904;28;20595;-50
2021/11/24 01:49:57;;;;;;;0.95;0.35;;;18.50;49.00;;;;;;5078543;28;20053;-50
2021/11/24 01:52:24;;;;;;;0.93;0.68;;;18.60;49.10;;;;;;5079144;28;20586;-47
2021/11/24 01:54:51;;;;;;;1.42;0.40;;;18.60;49.20;;;;;;5068401;28;20387;-50
2021/11/24 01:57:20;;;;;;;0.57;0.28;;;18.50;49.20;;;;;;5073277;28;20045;-50
2021/11/24 01:59:48;;;;;;;1.27;0.40;;;18.60;49.30;;;;;;5069196;28;20044;-51
2021/11/24 02:02:17;;;;;;;1.65;0.70;;;18.50;49.30;;;;;;5080563;28;20047;-48
2021/11/24 02:04:44;;;;;;;1.42;0.40;;;18.50;49.40;;;;;;5080977;28;20044;-49
2021/11/24 02:07:12;;;;;;;2.05;0.90;;;18.60;49.50;;;;;;5079886;28;20052;-50
2021/11/24 02:09:39;;;;;;;1.02;0.20;;;18.50;49.40;;;;;;5074602;28;20035;-49
2021/11/24 02:12:06;;;;;;;0.52;0.32;;;18.60;49.50;;;;;;5073299;28;20420;-52
2021/11/24 02:14:33;;;;;;;2.47;0.47;;;18.50;49.50;;;;;;5068761;28;20055;-52
2021/11/24 02:17:00;;;;;;;0.35;0.35;;;18.60;49.50;;;;;;5078106;28;20040;-54
2021/11/24 02:19:32;;;;;;;0.50;0.38;;;18.60;49.50;;;;;;5072104;28;20041;-50
2021/11/24 02:22:01;;;;;;;1.08;0.73;;;18.60;49.60;;;;;;5083177;28;20040;-50
2021/11/24 02:24:30;;;;;;;0.50;0.20;;;18.60;49.60;;;;;;5075865;28;20040;-49
2021/11/24 02:26:58;;;;;;;0.77;0.30;;;18.60;50.20;;;;;;5054427;28;20041;-50
2021/11/24 02:29:25;;;;;;;1.23;0.40;;;18.60;49.60;;;;;;5055722;28;20394;-53
2021/11/24 02:31:56;;;;;;;0.43;0.30;;;18.60;49.70;;;;;;5053616;28;20127;-50
2021/11/24 02:34:24;;;;;;;0.20;0.20;;;18.60;49.70;;;;;;5054169;28;20045;-50
2021/11/24 02:36:51;;;;;;;0.40;0.30;;;18.60;49.70;;;;;;5063074;28;20412;-50
2021/11/24 02:39:20;;;;;;;0.80;0.40;;;18.60;49.70;;;;;;5050191;28;20041;-51
2021/11/24 02:41:47;;;;;;;0.20;0.20;;;18.60;49.70;;;;;;5057925;28;20044;-51
2021/11/24 02:44:16;;;;;;;0.85;0.60;;;18.60;49.70;;;;;;5056938;28;20528;-52
2021/11/24 02:46:44;;;;;;;1.35;0.65;;;18.60;49.70;;;;;;5056049;28;20048;-52
2021/11/24 02:49:11;;;;;;;0.52;0.43;;;18.60;49.70;;;;;;5058698;28;20052;-54
2021/11/24 02:51:39;;;;;;;2.22;0.40;;;18.60;49.70;;;;;;5056918;28;20047;-50
2021/11/24 02:54:06;;;;;;;0.55;0.50;;;18.50;49.60;;;;;;5054989;28;20044;-49
2021/11/24 02:56:35;;;;;;;0.40;0.38;;;18.60;49.70;;;;;;5055523;28;20032;-52
2021/11/24 02:59:02;;;;;;;1.63;0.63;;;18.60;49.80;;;;;;5054959;28;20194;-49
2021/11/24 03:01:30;;;;;;;1.33;0.57;;;18.60;49.80;;;;;;5052908;28;20056;-49
2021/11/24 03:03:57;;;;;;;0.80;0.38;;;18.60;49.80;;;;;;5057446;28;20056;-51
2021/11/24 03:06:24;;;;;;;0.95;0.30;;;18.60;49.80;;;;;;5055028;28;20037;-49
2021/11/24 03:08:51;;;;;;;0.55;0.35;;;18.60;49.80;;;;;;5052973;28;20047;-54
2021/11/24 03:11:18;;;;;;;1.77;0.63;;;18.50;49.80;;;;;;5051343;28;20044;-50
2021/11/24 03:13:47;;;;;;;0.60;0.60;;;18.60;49.90;;;;;;5053718;28;20441;-49
2021/11/24 03:16:14;;;;;;;3.03;0.25;;;18.50;49.80;;;;;;5052198;28;20040;-51
2021/11/24 03:18:41;;;;;;;0.70;0.50;;;18.60;49.90;;;;;;5052936;28;20801;-50
2021/11/24 03:21:07;;;;;;;1.75;0.30;;;18.50;49.80;;;;;;5059404;28;20055;-48
2021/11/24 03:23:34;;;;;;;0.90;0.35;;;18.60;49.80;;;;;;5053849;28;20040;-52
2021/11/24 03:26:01;;;;;;;0.30;0.30;;;18.60;50.50;;;;;;5060692;28;20036;-52
2021/11/24 03:28:28;;;;;;;0.60;0.47;;;18.60;49.90;;;;;;5068883;28;20119;-48
2021/11/24 03:30:57;;;;;;;0.60;0.40;;;18.60;49.80;;;;;;5075609;28;20054;-47
2021/11/24 03:33:24;;;;;;;1.38;0.85;;;18.50;49.70;;;;;;5074121;28;20047;-48
2021/11/24 03:35:51;;;;;;;0.60;0.25;;;18.50;49.60;;;;;;5074776;28;20032;-46
2021/11/24 03:38:18;;;;;;;1.52;0.30;;;18.50;49.70;;;;;;5075056;28;20050;-47
2021/11/24 03:40:45;;;;;;;0.80;0.30;;;18.50;49.60;;;;;;5074595;28;20036;-50
2021/11/24 03:43:13;;;;;;;1.35;0.43;;;18.50;49.60;;;;;;5075218;28;20075;-54
2021/11/24 03:45:40;;;;;;;1.85;0.52;;;18.50;49.60;;;;;;5076848;28;20091;-47
2021/11/24 03:48:09;;;;;;;0.32;0.30;;;18.50;49.50;;;;;;5073030;28;20119;-49
2021/11/24 03:50:37;;;;;;;0.80;0.75;;;18.50;49.50;;;;;;5072403;28;20036;-49
2021/11/24 03:53:05;;;;;;;0.93;0.45;;;18.50;49.50;;;;;;5055832;28;20072;-51
2021/11/24 03:55:32;;;;;;;2.97;0.85;;;18.50;49.40;;;;;;5065567;28;20060;-51
2021/11/24 03:58:01;;;;;;;0.55;0.55;;;18.50;49.30;;;;;;5080616;28;20119;-47
2021/11/24 04:00:30;;;;;;;0.80;0.80;;;18.50;49.30;;;;;;5069584;28;20047;-47
2021/11/24 04:02:57;;;;;;;0.70;0.40;;;18.50;49.20;;;;;;5070405;28;20044;-49
2021/11/24 04:05:26;;;;;;;1.17;0.30;;;18.50;49.20;;;;;;5076319;28;20036;-53
2021/11/24 04:07:53;;;;;;;2.42;0.60;;;18.50;49.10;;;;;;5073840;28;20039;-50
2021/11/24 04:10:20;;;;;;;0.50;0.32;;;18.50;49.10;;;;;;5077799;28;20043;-50
2021/11/24 04:12:48;;;;;;;0.55;0.35;;;18.50;49.00;;;;;;5082490;28;20040;-52
2021/11/24 04:15:17;;;;;;;0.60;0.40;;;18.50;49.00;;;;;;5072525;28;20070;-54
2021/11/24 04:17:45;;;;;;;0.68;0.22;;;18.50;49.00;;;;;;5070301;28;20068;-52
2021/11/24 04:20:14;;;;;;;1.33;0.30;;;18.50;48.90;;;;;;5075047;28;20048;-48
2021/11/24 04:22:43;;;;;;;1.15;0.45;;;18.40;48.80;;;;;;5061506;28;20417;-47
2021/11/24 04:25:11;;;;;;;0.22;0.20;;;18.40;48.80;;;;;;5069811;28;20067;-50
2021/11/24 04:27:38;;;;;;;1.65;0.55;;;18.40;48.80;;;;;;5077611;28;20032;-48
2021/11/24 04:30:07;;;;;;;0.60;0.30;;;18.40;48.80;;;;;;5071932;28;20407;-52
2021/11/24 04:32:34;;;;;;;0.30;0.30;;;18.40;48.70;;;;;;5073201;28;20149;-48
2021/11/24 04:35:02;;;;;;;3.63;0.38;;;18.40;48.70;;;;;;5067761;28;20048;-48
2021/11/24 04:37:29;;;;;;;4.13;0.77;;;18.40;48.70;;;;;;5069477;28;20036;-48
2021/11/24 04:39:57;;;;;;;2.22;0.80;;;18.40;48.70;;;;;;5071087;28;20050;-50
2021/11/24 04:42:24;;;;;;;0.40;0.40;;;18.40;48.60;;;;;;5073869;28;20047;-49
2021/11/24 04:44:51;;;;;;;2.25;0.65;;;18.40;48.60;;;;;;5072600;28;20045;-50
2021/11/24 04:47:18;;;;;;;0.75;0.20;;;18.40;48.60;;;;;;5069854;28;20428;-50
2021/11/24 04:49:45;;;;;;;0.47;0.25;;;18.40;48.60;;;;;;5074992;28;20128;-47
2021/11/24 04:52:12;;;;;;;0.73;0.25;;;18.40;48.60;;;;;;5066415;28;20681;-48
2021/11/24 04:54:40;;;;;;;0.75;0.50;;;18.40;48.50;;;;;;5081821;28;20040;-47
2021/11/24 04:57:09;;;;;;;1.48;0.40;;;18.40;48.60;;;;;;5053699;28;20417;-50
2021/11/24 04:59:36;;;;;;;1.13;0.63;;;18.40;48.60;;;;;;5070776;28;20496;-46
2021/11/24 05:02:03;;;;;;;1.05;0.50;;;18.30;49.00;;;;;;5072103;28;20849;-51
2021/11/24 05:04:30;;;;;;;0.60;0.43;;;18.40;48.50;;;;;;5066271;28;20547;-52
2021/11/24 05:06:57;;;;;;;0.60;0.40;;;18.30;48.40;;;;;;5077284;28;20123;-51
2021/11/24 05:09:24;;;;;;;0.50;0.38;;;18.40;48.40;;;;;;5068789;28;20037;-48
2021/11/24 05:11:51;;;;;;;0.40;0.30;;;18.30;48.40;;;;;;5077943;28;20067;-53
2021/11/24 05:14:26;;;;;;;0.82;0.55;;;18.30;48.30;;;;;;5077568;28;20051;-45
2021/11/24 05:16:53;;;;;;;0.60;0.40;;;18.30;48.30;;;;;;5072260;28;20047;-50
2021/11/24 05:19:22;;;;;;;1.02;0.47;;;18.30;48.30;;;;;;5058327;28;20418;-50
2021/11/24 05:21:50;;;;;;;1.30;0.40;;;18.30;48.20;;;;;;5073869;28;20046;-46
2021/11/24 05:24:18;;;;;;;0.52;0.45;;;18.30;48.20;;;;;;5074089;28;20044;-52
2021/11/24 05:26:46;;;;;;;1.02;0.50;;;18.30;48.20;;;;;;5070067;28;20051;-51
2021/11/24 05:29:14;;;;;;;0.93;0.60;;;18.30;48.20;;;;;;5069049;28;20047;-50
2021/11/24 05:31:42;;;;;;;1.27;0.40;;;18.30;48.10;;;;;;5074522;28;20048;-47
2021/11/24 05:34:09;;;;;;;0.75;0.68;;;18.30;48.10;;;;;;5072033;28;20524;-51
2021/11/24 05:36:39;;;;;;;0.82;0.25;;;18.20;48.10;;;;;;5080069;28;20036;-51
2021/11/24 05:39:08;;;;;;;2.53;0.47;;;18.20;48.10;;;;;;5075408;28;20040;-50
2021/11/24 05:41:38;;;;;;;1.77;0.30;;;18.20;48.20;;;;;;5079718;28;20040;-52
2021/11/24 05:44:17;;;;;;;0.63;0.50;;;18.20;48.20;;;;;;5072949;28;20560;-50
2021/11/24 05:46:49;;;;;;;0.55;0.50;;;18.20;48.20;;;;;;5071562;28;20128;-51
2021/11/24 05:49:16;;;;;;;0.75;0.68;;;18.20;48.20;;;;;;5076663;28;20044;-48
2021/11/24 05:51:44;;;;;;;1.05;0.30;;;18.20;48.80;;;;;;5078661;28;20073;-52
2021/11/24 05:54:11;;;;;;;0.40;0.40;;;18.20;48.20;;;;;;5074519;28;20051;-53
2021/11/24 05:56:39;;;;;;;0.60;0.60;;;18.20;48.20;;;;;;5070716;28;20041;-52
2021/11/24 05:59:07;;;;;;;0.77;0.52;;;18.20;48.20;;;;;;5070874;28;20044;-51
2021/11/24 06:01:35;;;;;;;0.88;0.70;;;18.20;48.10;;;;;;5070402;28;20048;-50
2021/11/24 06:04:04;;;;;;;1.08;0.32;;;18.20;48.10;;;;;;5073074;28;20585;-53
2021/11/24 06:06:32;;;;;;;0.70;0.30;;;18.10;48.10;;;;;;5075910;28;20044;-48
2021/11/24 06:08:59;;;;;;;0.57;0.57;;;18.20;48.10;;;;;;5076711;28;20044;-51
2021/11/24 06:11:26;;;;;;;0.28;0.15;;;18.10;48.10;;;;;;5072603;28;20504;-52
2021/11/24 06:13:54;;;;;;;0.65;0.43;;;18.10;48.10;;;;;;5074922;28;20040;-49
2021/11/24 06:16:21;;;;;;;3.35;1.05;;;18.10;48.10;;;;;;5076056;28;20284;-52
2021/11/24 06:18:49;;;;;;;0.88;0.30;;;18.10;48.10;;;;;;5077997;28;20051;-47
2021/11/24 06:21:20;;;;;;;0.80;0.20;;;18.10;48.10;;;;;;5076812;28;20134;-50
2021/11/24 06:23:48;;;;;;;1.33;0.30;;;18.10;48.10;;;;;;5075338;28;20746;-50
2021/11/24 06:26:16;;;;;;;0.30;0.30;;;18.10;48.10;;;;;;5057724;28;20049;-50
2021/11/24 06:28:44;;;;;;;0.98;0.70;;;18.10;48.00;;;;;;5051771;28;20107;-48
2021/11/24 06:31:12;;;;;;;1.40;0.50;;;18.10;48.00;;;;;;5052446;28;20561;-51
2021/11/24 06:33:40;;;;;;;1.25;0.73;;;18.10;48.00;;;;;;5055252;28;20417;-49
2021/11/24 06:36:07;;;;;;;3.22;0.47;;;18.10;48.00;;;;;;5056119;28;20131;-51
2021/11/24 06:38:36;;;;;;;0.45;0.40;;;18.10;48.00;;;;;;5047704;28;20084;-53
2021/11/24 06:41:03;;;;;;;3.67;0.40;;;18.10;48.00;;;;;;5049292;28;20423;-52
2021/11/24 06:43:30;;;;;;;5.25;0.98;;;18.00;48.40;;;;;;5048570;28;20041;-51
2021/11/24 06:45:57;;;;;;;0.55;0.55;;;18.10;48.40;;;;;;5053460;28;20148;-51
2021/11/24 06:48:24;;;;;;;1.05;0.60;;;18.00;48.30;;;;;;5052171;28;20040;-52
2021/11/24 06:50:51;;;;;;;1.65;0.63;;;18.00;48.30;;;;;;5054781;28;20572;-50
2021/11/24 06:53:19;;;;;;;1.42;0.50;;;18.00;48.30;;;;;;5058075;28;20048;-55
2021/11/24 06:55:47;;;;;;;0.35;0.30;;;18.00;48.30;;;;;;5051148;28;20051;-51
2021/11/24 06:58:15;;;;;;;0.65;0.43;;;18.00;48.30;;;;;;5052581;28;20056;-50
2021/11/24 07:00:43;;;;;;;2.97;0.40;;;18.00;48.30;;;;;;5038141;28;20073;-54
2021/11/24 07:03:10;;;;;;;1.48;0.65;;;18.00;48.30;;;;;;5053318;28;20037;-51
2021/11/24 07:05:38;;;;;;;1.17;0.40;;;18.00;48.20;;;;;;5052466;28;20064;-51
2021/11/24 07:08:06;;;;;;;1.50;0.43;;;18.00;48.20;;;;;;5053296;28;20043;-51
2021/11/24 07:10:34;;;;;;;0.40;0.40;;;18.00;48.20;;;;;;5050430;28;20135;-50
2021/11/24 07:13:02;;;;;;;2.92;0.38;;;18.00;48.20;;;;;;5046831;28;20033;-50
2021/11/24 07:15:30;;;;;;;0.73;0.20;;;18.00;48.20;;;;;;5057023;28;20063;-50
2021/11/24 07:17:57;;;;;;;1.05;0.30;;;18.00;48.10;;;;;;5048916;28;20571;-47
2021/11/24 07:20:24;;;;;;;0.63;0.60;;;18.00;48.10;;;;;;5052156;28;20167;-52
2021/11/24 07:22:51;;;;;;;0.60;0.30;;;18.00;48.10;;;;;;5046074;28;20413;-52
2021/11/24 07:25:19;;;;;;;0.93;0.57;;;18.00;48.10;;;;;;5055083;28;20502;-51
2021/11/24 07:27:46;;;;;;;2.28;0.50;;;17.90;48.00;;;;;;5058508;28;20036;-52
2021/11/24 07:30:17;;;;;;;3.47;0.60;;;17.90;48.00;;;;;;5069132;28;20080;-48
2021/11/24 07:32:44;;;;;;;1.50;0.20;;;17.90;48.00;;;;;;5074237;28;20071;-49
2021/11/24 07:35:12;;;;;;;5.25;0.60;;;17.90;48.00;;;;;;5074571;28;20082;-53
2021/11/24 07:37:39;;;;;;;1.05;0.43;;;17.90;48.00;;;;;;5060526;28;20130;-53
2021/11/24 07:40:09;;;;;;;0.40;0.38;;;17.90;48.00;;;;;;5072476;28;20049;-50
2021/11/24 07:42:36;;;;;;;0.52;0.30;;;17.90;48.00;;;;;;5068113;28;20036;-52
2021/11/24 07:45:05;;;;;;;1.70;0.30;;;17.90;48.10;;;;;;5067121;28;20036;-51
2021/11/24 07:47:33;;;;;;;0.82;0.60;;;17.90;48.00;;;;;;5068323;28;20353;-49
2021/11/24 07:50:01;;;;;;;2.75;0.30;;;17.90;48.00;;;;;;5065581;28;20048;-49
2021/11/24 07:52:28;;;;;;;1.15;0.52;;;17.90;48.00;;;;;;5066955;28;20044;-50
2021/11/24 07:54:55;;;;;;;0.68;0.65;;;17.90;48.00;;;;;;5065087;28;20036;-49
2021/11/24 07:57:23;;;;;;;0.95;0.30;;;17.90;48.00;;;;;;5072051;28;20048;-47
2021/11/24 07:59:50;;;;;;;7.40;0.45;;;17.90;48.00;;;;;;5064002;28;20047;-53
2021/11/24 08:02:17;;;;;;;1.05;0.60;;;17.90;48.00;;;;;;5067402;28;20488;-51
2021/11/24 08:04:46;;;;;;;2.40;0.70;;;17.90;48.00;;;;;;5071113;28;20048;-51
2021/11/24 08:07:13;;;;;;;0.35;0.30;;;17.90;48.00;;;;;;5065062;28;20052;-47
2021/11/24 08:09:41;;;;;;;0.60;0.60;;;17.90;48.00;;;;;;5055654;28;20476;-50
2021/11/24 08:12:09;;;;;;;0.68;0.25;;;17.90;48.00;;;;;;5070500;28;20044;-50
2021/11/24 08:14:36;;;;;;;1.60;0.43;;;17.90;47.90;;;;;;5067283;28;20496;-47
2021/11/24 08:17:04;;;;;;;0.52;0.30;;;17.90;48.00;;;;;;5072244;28;20420;-47
2021/11/24 08:19:32;;;;;;;1.13;0.63;;;17.90;47.90;;;;;;5077661;28;20037;-48
2021/11/24 08:22:00;;;;;;;2.95;0.30;;;17.90;47.90;;;;;;5067694;28;20045;-50
2021/11/24 08:24:28;;;;;;;1.02;0.63;;;17.90;48.00;;;;;;5069210;28;20048;-51
2021/11/24 08:26:55;;;;;;;12.18;1.20;;;17.90;48.30;;;;;;5053233;28;20064;-51
2021/11/24 08:29:22;;;;;;;8.40;0.50;;;17.90;48.70;;;;;;5063734;28;20036;-52
2021/11/24 08:31:49;;;;;;;4.03;1.65;;;17.90;48.40;;;;;;5057625;28;20044;-45
2021/11/24 08:34:17;;;;;;;1.30;0.70;;;18.00;48.80;;;;;;5060776;28;20104;-49
2021/11/24 08:36:44;;;;;;;3.80;2.45;;;18.00;48.90;;;;;;5063680;28;20967;-50
2021/11/24 08:39:13;;;;;;;2.65;1.05;;;18.00;48.50;;;;;;5062725;28;20055;-45
2021/11/24 08:41:40;;;;;;;2.45;1.00;;;18.10;48.30;;;;;;5061447;28;20029;-48
2021/11/24 08:44:08;;;;;;;4.85;1.20;;;18.20;48.20;;;;;;5046578;28;20046;-47
2021/11/24 08:46:35;;;;;;;5.80;0.98;;;18.20;48.00;;;;;;5059690;28;20107;-49
2021/11/24 08:49:02;;;;;;;2.10;1.75;;;18.30;47.90;;;;;;5063083;28;20036;-49
2021/11/24 08:51:29;;;;;;;2.40;1.10;;;18.40;47.70;;;;;;5064153;28;20080;-49
2021/11/24 08:53:56;;;;;;;1.55;1.45;;;18.50;47.40;;;;;;5059790;28;20044;-45
2021/11/24 08:56:25;;;;;;;1.40;1.13;;;18.60;47.20;;;;;;5059367;28;20053;-46
2021/11/24 08:58:52;;;;;;;1.45;0.95;;;18.60;47.00;;;;;;5064905;28;20047;-50
2021/11/24 09:01:19;;;;;;;6.32;1.42;;;18.70;46.80;;;;;;5051844;28;20165;-46
2021/11/24 09:03:47;;;;;;;3.17;0.90;;;18.80;46.50;;;;;;5069427;28;20037;-47
2021/11/24 09:06:14;;;;;;;2.03;0.75;;;18.90;46.30;;;;;;5076264;28;20471;-48
2021/11/24 09:08:41;;;;;;;3.97;1.20;;;19.00;46.70;;;;;;5068517;28;20032;-49
2021/11/24 09:11:08;;;;;;;1.65;0.82;;;19.00;45.90;;;;;;5071759;28;20139;-50
2021/11/24 09:13:36;;;;;;;1.50;1.13;;;19.20;45.70;;;;;;5073511;28;20045;-44
2021/11/24 09:16:04;;;;;;;1.92;0.90;;;19.20;45.40;;;;;;5074415;28;20052;-49
2021/11/24 09:18:31;;;;;;;3.13;0.70;;;19.30;45.30;;;;;;5073272;28;20040;-45
2021/11/24 09:20:58;;;;;;;3.35;2.17;;;19.40;45.00;;;;;;5071586;28;20040;-48
2021/11/24 09:23:27;;;;;;;3.05;1.23;;;19.40;44.80;;;;;;5070888;28;20036;-45
2021/11/24 09:26:02;;;;;;;4.25;1.30;;;19.50;44.70;;;;;;5075629;28;20075;-46
2021/11/24 09:28:32;;;;;;;2.10;1.02;;;19.50;44.50;;;;;;5063895;28;20500;-49
2021/11/24 09:31:01;;;;;;;2.20;1.50;;;19.50;44.40;;;;;;5068692;28;20087;-47
2021/11/24 09:33:28;;;;;;;3.13;1.38;;;19.60;44.30;;;;;;5070560;28;20040;-45
2021/11/24 09:35:56;;;;;;;1.90;1.77;;;19.60;44.10;;;;;;5074179;28;20036;-45
2021/11/24 09:38:24;;;;;;;2.35;1.45;;;19.70;44.00;;;;;;5074256;28;20032;-48
2021/11/24 09:40:52;;;;;;;3.63;1.40;;;19.70;43.80;;;;;;5069752;28;20032;-51
2021/11/24 09:43:21;;;;;;;2.70;1.42;;;19.80;43.80;;;;;;5063149;28;20531;-47
2021/11/24 09:45:49;;;;;;;2.28;1.30;;;19.80;43.60;;;;;;5083190;28;20036;-49
2021/11/24 09:48:19;;;;;;;1.60;1.08;;;19.90;43.50;;;;;;5070321;28;20087;-47
2021/11/24 09:50:48;;;;;;;4.68;1.40;;;19.90;43.40;;;;;;5070471;28;20439;-45
2021/11/24 09:53:17;;;;;;;2.05;1.77;;;19.90;43.20;;;;;;5059067;28;20041;-45
2021/11/24 09:55:44;;;;;;;2.97;1.08;;;20.00;43.20;;;;;;5069105;28;20061;-52
2021/11/24 09:58:13;;;;;;;1.42;1.17;;;19.90;43.00;;;;;;5077266;28;20047;-48
2021/11/24 10:00:40;;;;;;;3.10;0.80;;;20.00;43.00;;;;;;5072466;28;20136;-46
2021/11/24 10:03:08;;;;;;;3.17;1.48;;;20.00;43.00;;;;;;5074157;28;20147;-51
2021/11/24 10:05:37;;;;;;;2.20;1.85;;;20.00;42.80;;;;;;5075290;28;20040;-46
2021/11/24 10:08:06;;;;;;;4.55;1.77;;;20.10;42.70;;;;;;5070031;28;20547;-49
2021/11/24 10:10:33;;;;;;;3.78;1.30;;;20.10;42.60;;;;;;5065565;28;20115;-50
2021/11/24 10:13:01;;;;;;;3.47;1.30;;;20.10;42.50;;;;;;5076013;28;20047;-52
2021/11/24 10:15:41;;;;;;;3.50;2.08;;;20.10;42.30;;;;;;5069677;28;20036;-49
2021/11/24 10:18:18;;;;;;;1.30;1.13;;;20.20;42.20;;;;;;5074336;28;20281;-47
2021/11/24 10:20:49;;;;;;;1.42;1.33;;;20.20;42.20;;;;;;5064845;28;20043;-46
2021/11/24 10:23:24;;;;;;;2.28;1.10;;;20.20;42.10;;;;;;5065836;28;20051;-47
2021/11/24 10:25:52;;;;;;;1.52;0.93;;;20.20;42.00;;;;;;5069309;28;20524;-51
2021/11/24 10:28:28;;;;;;;2.95;0.93;;;20.30;41.90;;;;;;5070668;28;20060;-46
2021/11/24 10:30:56;;;;;;;3.67;0.70;;;20.30;41.80;;;;;;5071020;28;20123;-47
2021/11/24 10:33:26;;;;;;;1.90;1.40;;;20.30;41.60;;;;;;5080905;28;20157;-51
2021/11/24 10:36:06;;;;;;;2.80;1.90;;;20.40;41.60;;;;;;5069029;28;20527;-51
2021/11/24 10:38:39;;;;;;;1.70;1.60;;;20.40;41.50;;;;;;5070459;28;20048;-48
2021/11/24 10:41:10;;;;;;;1.02;0.93;;;20.40;41.40;;;;;;5072234;28;20040;-49
2021/11/24 10:43:42;;;;;;;3.25;1.77;;;20.40;41.30;;;;;;5066574;28;20520;-51
2021/11/24 10:46:11;;;;;;;3.70;1.35;;;20.50;41.30;;;;;;5072757;28;20041;-48
2021/11/24 10:48:39;;;;;;;1.65;1.48;;;20.50;41.20;;;;;;5076855;28;20048;-51
2021/11/24 10:51:35;;;;;;;4.82;1.35;;;20.50;41.30;;;;;;5066338;28;20130;-49
2021/11/24 10:54:05;;;;;;;2.45;1.33;;;20.60;41.40;;;;;;5069546;28;20055;-51
2021/11/24 10:56:33;;;;;;;2.95;1.83;;;20.50;41.40;;;;;;5074956;28;20409;-51
2021/11/24 10:59:15;;;;;;;1.70;0.65;;;20.60;41.50;;;;;;5076069;28;20044;-50
2021/11/24 11:01:43;;;;;;;2.42;1.77;;;20.70;41.50;;;;;;5074415;28;20947;-49
2021/11/24 11:04:12;;;;;;;10.68;1.00;;;20.70;41.50;;;;;;5072698;28;20048;-49
2021/11/24 11:06:41;;;;;;;5.47;1.23;;;20.70;41.40;;;;;;5075712;28;20052;-49
2021/11/24 11:09:09;;;;;;;6.13;0.73;;;20.80;41.30;;;;;;5066414;28;20032;-49
2021/11/24 11:11:38;;;;;;;3.80;1.02;;;20.80;41.00;;;;;;5066496;28;20040;-54
2021/11/24 11:14:21;;;;;;;15.68;2.25;;;20.90;41.00;;;;;;5063770;28;20114;-55
2021/11/24 11:16:50;;;;;;;7.47;1.63;;;20.90;43.00;;;;;;5078630;28;20047;-57
2021/11/24 11:19:38;;;;;;;7.63;2.10;;;21.00;44.40;;;;;;5068517;28;20118;-58
2021/11/24 11:22:07;;;;;;;5.60;1.73;;;21.10;45.60;;;;;;5069869;28;20049;-57
2021/11/24 11:24:35;;;;;;;4.78;2.50;;;21.10;44.80;;;;;;5083669;28;20038;-59
2021/11/24 11:27:02;;;;;;;8.18;3.55;;;21.20;44.40;;;;;;5072648;28;20114;-56
2021/11/24 11:29:29;;;;;;;6.35;2.10;;;21.30;43.90;;;;;;5078746;28;20046;-57
2021/11/24 11:31:57;;;;;;;3.00;1.55;;;21.40;43.50;;;;;;5069210;28;20537;-56
2021/11/24 11:34:24;;;;;;;4.50;1.65;;;21.50;43.30;;;;;;5079714;28;20800;-56
2021/11/24 11:36:51;;;;;;;4.80;1.95;;;21.60;43.10;;;;;;5070621;28;20040;-54
2021/11/24 11:39:20;;;;;;;5.82;0.90;;;21.70;42.90;;;;;;5073998;28;20075;-56
2021/11/24 11:41:49;;;;;;;2.55;1.75;;;21.80;42.90;;;;;;5074490;28;20053;-57
2021/11/24 11:44:19;;;;;;;4.38;1.83;;;21.80;42.80;;;;;;5062578;28;20131;-54
2021/11/24 11:46:49;;;;;;;3.28;1.42;;;21.90;42.70;;;;;;5068417;28;20040;-58
2021/11/24 11:49:19;;;;;;;5.40;1.45;;;21.90;42.40;;;;;;5071205;28;20086;-55
2021/11/24 11:51:47;;;;;;;2.50;1.38;;;21.90;42.30;;;;;;5084818;28;20040;-52
2021/11/24 11:54:26;;;;;;;6.07;1.33;;;22.00;42.20;;;;;;5071176;28;20045;-58
2021/11/24 11:56:53;;;;;;;7.43;2.55;;;22.00;41.90;;;;;;5057120;28;20044;-59
2021/11/24 11:59:22;;;;;;;2.60;1.33;;;22.00;41.70;;;;;;5069944;28;20044;-59
2021/11/24 12:02:01;;;;;;;6.22;0.70;;;22.10;41.20;;;;;;5077473;28;20051;-56
2021/11/24 12:04:31;;;;;;;2.70;1.30;;;22.20;41.00;;;;;;5060447;28;20044;-56
2021/11/24 12:07:07;;;;;;;1.35;1.25;;;22.20;40.80;;;;;;5068045;28;20048;-55
2021/11/24 12:09:36;;;;;;;;;;;22.20;40.60;;;;;;5083566;28;20496;-55
2021/11/24 12:12:27;;;;;;;1.90;0.70;;;22.20;40.40;;;;;;5073496;28;19932;-59
2021/11/24 12:15:03;;;;;;;2.28;1.02;;;22.20;40.50;;;;;;5068697;28;20098;-53
2021/11/24 12:17:32;;;;;;;;;;;22.20;40.40;;;;;;5051195;28;20044;-58
2021/11/24 12:20:01;;;;;;;0.98;0.63;;;22.20;40.20;;;;;;5066312;28;19969;-56
2021/11/24 12:22:57;;;;;;;2.00;1.17;;;22.20;40.10;;;;;;5068966;28;20044;-55
2021/11/24 12:25:42;;;;;;;1.20;0.88;;;22.30;40.00;;;;;;5016825;28;20062;-56
2021/11/24 12:28:12;;;;;;;4.18;0.52;;;22.30;39.80;;;;;;5004693;28;20552;-56
2021/11/24 12:31:01;;;;;;;1.85;0.77;;;22.30;39.70;;;;;;5004727;28;20073;-57
2021/11/24 12:33:30;;;;;;;2.45;1.70;;;22.50;39.50;;;;;;5018803;28;20056;-56
2021/11/24 12:36:00;;;;;;;2.38;1.02;;;22.50;39.90;;;;;;5007826;28;20046;-57
2021/11/24 12:38:29;;;;;;;17.15;1.40;;;22.50;39.60;;;;;;4986103;28;20046;-61
2021/11/24 12:41:00;;;;;;;6.75;1.02;;;22.60;40.20;;;;;;4997835;28;20979;-55
2021/11/24 12:43:29;;;;;;;3.00;0.73;;;22.60;40.30;;;;;;4994488;28;20065;-59
2021/11/24 12:46:02;;;;;;;4.05;0.45;;;22.60;40.70;;;;;;5010809;28;20160;-58
2021/11/24 12:48:34;;;;;;;3.92;1.33;;;22.70;41.50;;;;;;5013065;28;20530;-57
2021/11/24 12:51:03;;;;;;;3.95;0.88;;;22.70;41.80;;;;;;5006510;28;20049;-59
2021/11/24 12:53:30;;;;;;;2.65;0.73;;;22.70;42.00;;;;;;5009808;28;20049;-58
2021/11/24 12:56:14;;;;;;;1.33;0.32;;;22.70;42.00;;;;;;5009130;28;20156;-58